sensor_id;sensor_type;location;lat;lon;timestamp;pressure;altitude;pressure_sealevel;temperature
80246;BMP280;69558;39.208;-77.226;2023-05-29T00:00:58;100150.19;;;21.03
80246;BMP280;69558;39.208;-77.226;2023-05-29T00:03:25;100153.22;;;21.00
80246;BMP280;69558;39.208;-77.226;2023-05-29T00:05:51;100143.50;;;20.94
80246;BMP280;69558;39.208;-77.226;2023-05-29T00:08:17;100146.94;;;20.94
80246;BMP280;69558;39.208;-77.226;2023-05-29T00:10:43;100151.41;;;20.94
80246;BMP280;69558;39.208;-77.226;2023-05-29T00:13:11;100135.38;;;20.89
80246;BMP280;69558;39.208;-77.226;2023-05-29T00:15:37;100148.31;;;20.97
80246;BMP280;69558;39.208;-77.226;2023-05-29T00:18:04;100145.31;;;21.00
80246;BMP280;69558;39.208;-77.226;2023-05-29T00:20:30;100142.47;;;20.95
80246;BMP280;69558;39.208;-77.226;2023-05-29T00:22:59;100136.16;;;21.02
80246;BMP280;69558;39.208;-77.226;2023-05-29T00:25:27;100134.34;;;21.03
80246;BMP280;69558;39.208;-77.226;2023-05-29T00:27:53;100138.16;;;21.07
80246;BMP280;69558;39.208;-77.226;2023-05-29T00:30:19;100122.19;;;20.95
80246;BMP280;69558;39.208;-77.226;2023-05-29T00:32:45;100132.34;;;20.98
80246;BMP280;69558;39.208;-77.226;2023-05-29T00:35:11;100132.50;;;20.97
80246;BMP280;69558;39.208;-77.226;2023-05-29T00:37:37;100133.94;;;20.93
80246;BMP280;69558;39.208;-77.226;2023-05-29T00:40:03;100140.06;;;20.93
80246;BMP280;69558;39.208;-77.226;2023-05-29T00:42:29;100140.88;;;20.94
80246;BMP280;69558;39.208;-77.226;2023-05-29T00:44:55;100143.50;;;20.94
80246;BMP280;69558;39.208;-77.226;2023-05-29T00:47:21;100140.88;;;20.94
80246;BMP280;69558;39.208;-77.226;2023-05-29T00:49:47;100142.47;;;20.95
80246;BMP280;69558;39.208;-77.226;2023-05-29T00:52:15;100148.31;;;20.97
80246;BMP280;69558;39.208;-77.226;2023-05-29T00:54:43;100149.34;;;21.02
80246;BMP280;69558;39.208;-77.226;2023-05-29T00:57:12;100151.16;;;21.02
80246;BMP280;69558;39.208;-77.226;2023-05-29T00:59:39;100138.63;;;21.04
80246;BMP280;69558;39.208;-77.226;2023-05-29T01:02:05;100145.31;;;21.00
80246;BMP280;69558;39.208;-77.226;2023-05-29T01:04:32;100152.19;;;21.01
80246;BMP280;69558;39.208;-77.226;2023-05-29T01:07:00;100147.31;;;20.98
80246;BMP280;69558;39.208;-77.226;2023-05-29T01:09:28;100148.56;;;20.89
80246;BMP280;69558;39.208;-77.226;2023-05-29T01:12:25;100151.00;;;20.90
80246;BMP280;69558;39.208;-77.226;2023-05-29T01:17:51;100134.78;;;20.80
80246;BMP280;69558;39.208;-77.226;2023-05-29T01:20:38;100156.47;;;20.95
80246;BMP280;69558;39.208;-77.226;2023-05-29T01:23:34;100155.66;;;20.95
80246;BMP280;69558;39.208;-77.226;2023-05-29T01:26:35;100155.66;;;20.95
80246;BMP280;69558;39.208;-77.226;2023-05-29T01:29:07;100159.50;;;20.99
80246;BMP280;69558;39.208;-77.226;2023-05-29T01:31:33;100153.00;;;21.01
80246;BMP280;69558;39.208;-77.226;2023-05-29T01:34:00;100161.72;;;21.02
80246;BMP280;69558;39.208;-77.226;2023-05-29T01:36:27;100152.22;;;20.94
80246;BMP280;69558;39.208;-77.226;2023-05-29T01:38:55;100161.75;;;20.95
80246;BMP280;69558;39.208;-77.226;2023-05-29T01:41:23;100145.34;;;20.80
80246;BMP280;69558;39.208;-77.226;2023-05-29T01:43:51;100159.94;;;20.89
80246;BMP280;69558;39.208;-77.226;2023-05-29T01:46:18;100164.00;;;20.85
80246;BMP280;69558;39.208;-77.226;2023-05-29T01:48:45;100167.41;;;20.92
80246;BMP280;69558;39.208;-77.226;2023-05-29T01:51:12;100170.84;;;20.93
80246;BMP280;69558;39.208;-77.226;2023-05-29T01:53:39;100170.47;;;20.96
80246;BMP280;69558;39.208;-77.226;2023-05-29T01:56:06;100171.25;;;20.96
80246;BMP280;69558;39.208;-77.226;2023-05-29T01:58:33;100174.53;;;20.98
80246;BMP280;69558;39.208;-77.226;2023-05-29T02:01:01;100172.09;;;21.03
80246;BMP280;69558;39.208;-77.226;2023-05-29T02:03:27;100159.69;;;20.97
80246;BMP280;69558;39.208;-77.226;2023-05-29T02:05:57;100169.41;;;20.97
80246;BMP280;69558;39.208;-77.226;2023-05-29T02:08:23;100166.00;;;20.90
80246;BMP280;69558;39.208;-77.226;2023-05-29T02:10:49;100184.44;;;20.96
80246;BMP280;69558;39.208;-77.226;2023-05-29T02:13:16;100175.31;;;20.92
80246;BMP280;69558;39.208;-77.226;2023-05-29T02:15:43;100181.44;;;20.86
80246;BMP280;69558;39.208;-77.226;2023-05-29T02:18:12;100169.06;;;20.80
80246;BMP280;69558;39.208;-77.226;2023-05-29T02:20:39;100186.09;;;20.91
80246;BMP280;69558;39.208;-77.226;2023-05-29T02:23:05;100185.47;;;20.95
80246;BMP280;69558;39.208;-77.226;2023-05-29T02:25:31;100186.88;;;20.98
80246;BMP280;69558;39.208;-77.226;2023-05-29T02:27:57;100170.84;;;20.93
80246;BMP280;69558;39.208;-77.226;2023-05-29T02:30:23;100177.97;;;20.99
80246;BMP280;69558;39.208;-77.226;2023-05-29T02:32:49;100177.16;;;20.98
80246;BMP280;69558;39.208;-77.226;2023-05-29T02:35:16;100184.22;;;21.04
80246;BMP280;69558;39.208;-77.226;2023-05-29T02:37:46;100191.34;;;21.04
80246;BMP280;69558;39.208;-77.226;2023-05-29T02:40:12;100176.75;;;20.95
80246;BMP280;69558;39.208;-77.226;2023-05-29T02:42:38;100190.53;;;20.97
80246;BMP280;69558;39.208;-77.226;2023-05-29T02:45:05;100194.19;;;20.96
80246;BMP280;69558;39.208;-77.226;2023-05-29T02:47:31;100169.50;;;20.84
80246;BMP280;69558;39.208;-77.226;2023-05-29T02:49:57;100182.66;;;20.90
80246;BMP280;69558;39.208;-77.226;2023-05-29T02:52:23;100171.69;;;20.93
80246;BMP280;69558;39.208;-77.226;2023-05-29T02:54:49;100172.50;;;20.94
80246;BMP280;69558;39.208;-77.226;2023-05-29T02:57:15;100172.88;;;20.97
80246;BMP280;69558;39.208;-77.226;2023-05-29T02:59:41;100161.75;;;20.89
80246;BMP280;69558;39.208;-77.226;2023-05-29T03:02:09;100167.84;;;20.96
80246;BMP280;69558;39.208;-77.226;2023-05-29T03:04:36;100173.91;;;21.03
80246;BMP280;69558;39.208;-77.226;2023-05-29T03:07:02;100166.00;;;21.03
80246;BMP280;69558;39.208;-77.226;2023-05-29T03:09:28;100165.38;;;21.01
80246;BMP280;69558;39.208;-77.226;2023-05-29T03:11:53;100147.56;;;20.90
80246;BMP280;69558;39.208;-77.226;2023-05-29T03:14:19;100154.66;;;20.96
80246;BMP280;69558;39.208;-77.226;2023-05-29T03:16:47;100144.13;;;20.89
80246;BMP280;69558;39.208;-77.226;2023-05-29T03:19:14;100147.13;;;20.93
80246;BMP280;69558;39.208;-77.226;2023-05-29T03:21:41;100121.00;;;20.78
80246;BMP280;69558;39.208;-77.226;2023-05-29T03:24:07;100130.31;;;20.87
80246;BMP280;69558;39.208;-77.226;2023-05-29T03:26:32;100126.66;;;20.88
80246;BMP280;69558;39.208;-77.226;2023-05-29T03:28:59;100132.34;;;20.92
80246;BMP280;69558;39.208;-77.226;2023-05-29T03:31:24;100128.47;;;20.94
80246;BMP280;69558;39.208;-77.226;2023-05-29T03:33:51;100126.22;;;20.98
80246;BMP280;69558;39.208;-77.226;2023-05-29T03:36:17;100112.47;;;20.96
80246;BMP280;69558;39.208;-77.226;2023-05-29T03:38:44;100129.88;;;21.03
80246;BMP280;69558;39.208;-77.226;2023-05-29T03:41:11;100124.38;;;21.05
80246;BMP280;69558;39.208;-77.226;2023-05-29T03:43:38;100113.47;;;20.95
80246;BMP280;69558;39.208;-77.226;2023-05-29T03:46:05;100114.06;;;20.97
80246;BMP280;69558;39.208;-77.226;2023-05-29T03:48:31;100111.84;;;20.94
80246;BMP280;69558;39.208;-77.226;2023-05-29T03:50:57;100097.47;;;20.83
80246;BMP280;69558;39.208;-77.226;2023-05-29T03:53:23;100079.44;;;20.80
80246;BMP280;69558;39.208;-77.226;2023-05-29T03:55:49;100088.53;;;20.91
80246;BMP280;69558;39.208;-77.226;2023-05-29T03:58:15;100086.72;;;20.91
80246;BMP280;69558;39.208;-77.226;2023-05-29T04:00:41;100087.91;;;20.95
80246;BMP280;69558;39.208;-77.226;2023-05-29T04:03:08;100088.06;;;21.00
80246;BMP280;69558;39.208;-77.226;2023-05-29T04:05:34;100084.41;;;21.01
80246;BMP280;69558;39.208;-77.226;2023-05-29T04:08:01;100085.06;;;21.03
80246;BMP280;69558;39.208;-77.226;2023-05-29T04:10:30;100081.59;;;21.03
80246;BMP280;69558;39.208;-77.226;2023-05-29T04:13:00;100089.53;;;21.03
80246;BMP280;69558;39.208;-77.226;2023-05-29T04:15:27;100076.31;;;20.96
80246;BMP280;69558;39.208;-77.226;2023-05-29T04:17:54;100064.81;;;20.84
80246;BMP280;69558;39.208;-77.226;2023-05-29T04:20:20;100089.13;;;20.93
80246;BMP280;69558;39.208;-77.226;2023-05-29T04:22:47;100092.59;;;20.93
80246;BMP280;69558;39.208;-77.226;2023-05-29T04:25:12;100079.63;;;20.78
80246;BMP280;69558;39.208;-77.226;2023-05-29T04:27:39;100096.44;;;20.91
80246;BMP280;69558;39.208;-77.226;2023-05-29T04:30:06;100086.72;;;20.91
80246;BMP280;69558;39.208;-77.226;2023-05-29T04:32:33;100079.19;;;20.88
80246;BMP280;69558;39.208;-77.226;2023-05-29T04:35:00;100088.72;;;20.96
80246;BMP280;69558;39.208;-77.226;2023-05-29T04:37:29;100084.03;;;20.98
80246;BMP280;69558;39.208;-77.226;2023-05-29T04:39:56;100082.81;;;21.00
80246;BMP280;69558;39.208;-77.226;2023-05-29T04:42:25;100074.09;;;21.00
80246;BMP280;69558;39.208;-77.226;2023-05-29T04:44:51;100052.19;;;20.93
80246;BMP280;69558;39.208;-77.226;2023-05-29T04:47:20;100038.06;;;20.80
80246;BMP280;69558;39.208;-77.226;2023-05-29T04:49:47;100059.94;;;20.94
80246;BMP280;69558;39.208;-77.226;2023-05-29T04:52:15;100037.84;;;20.82
80246;BMP280;69558;39.208;-77.226;2023-05-29T04:54:42;100059.13;;;20.94
80246;BMP280;69558;39.208;-77.226;2023-05-29T04:57:08;100055.09;;;20.85
80246;BMP280;69558;39.208;-77.226;2023-05-29T04:59:34;100059.94;;;20.94
80246;BMP280;69558;39.208;-77.226;2023-05-29T05:02:01;100046.13;;;20.92
80246;BMP280;69558;39.208;-77.226;2023-05-29T05:04:27;100045.72;;;20.95
80246;BMP280;69558;39.208;-77.226;2023-05-29T05:06:53;100023.25;;;20.86
80246;BMP280;69558;39.208;-77.226;2023-05-29T05:09:19;100032.94;;;20.99
80246;BMP280;69558;39.208;-77.226;2023-05-29T05:11:45;100038.56;;;21.02
80246;BMP280;69558;39.208;-77.226;2023-05-29T05:14:11;100044.44;;;21.04
80246;BMP280;69558;39.208;-77.226;2023-05-29T05:16:37;100043.25;;;21.00
80246;BMP280;69558;39.208;-77.226;2023-05-29T05:19:03;100042.69;;;20.98
80246;BMP280;69558;39.208;-77.226;2023-05-29T05:21:29;100032.31;;;20.97
80246;BMP280;69558;39.208;-77.226;2023-05-29T05:23:56;100031.72;;;20.95
80246;BMP280;69558;39.208;-77.226;2023-05-29T05:26:23;100016.94;;;20.87
80246;BMP280;69558;39.208;-77.226;2023-05-29T05:28:48;100017.75;;;20.88
80246;BMP280;69558;39.208;-77.226;2023-05-29T05:31:14;100023.81;;;20.95
80246;BMP280;69558;39.208;-77.226;2023-05-29T05:33:41;100019.97;;;20.91
80246;BMP280;69558;39.208;-77.226;2023-05-29T05:36:07;100026.66;;;20.93
80246;BMP280;69558;39.208;-77.226;2023-05-29T05:38:34;100030.72;;;20.96
80246;BMP280;69558;39.208;-77.226;2023-05-29T05:41:00;100018.56;;;20.95
80246;BMP280;69558;39.208;-77.226;2023-05-29T05:43:25;100004.72;;;20.93
80246;BMP280;69558;39.208;-77.226;2023-05-29T05:45:52;100012.41;;;21.01
80246;BMP280;69558;39.208;-77.226;2023-05-29T05:48:18;100005.75;;;20.98
80246;BMP280;69558;39.208;-77.226;2023-05-29T05:50:45;99992.41;;;20.87
80246;BMP280;69558;39.208;-77.226;2023-05-29T05:53:11;100011.22;;;20.97
80246;BMP280;69558;39.208;-77.226;2023-05-29T05:55:36;100005.56;;;20.93
80246;BMP280;69558;39.208;-77.226;2023-05-29T05:58:02;99990.38;;;20.89
80246;BMP280;69558;39.208;-77.226;2023-05-29T06:00:29;99992.00;;;20.90
80246;BMP280;69558;39.208;-77.226;2023-05-29T06:02:55;99959.22;;;20.72
80246;BMP280;69558;39.208;-77.226;2023-05-29T06:05:21;99987.31;;;20.92
80246;BMP280;69558;39.208;-77.226;2023-05-29T06:07:47;99986.28;;;20.93
80246;BMP280;69558;39.208;-77.226;2023-05-29T06:10:14;99987.31;;;20.92
80246;BMP280;69558;39.208;-77.226;2023-05-29T06:12:40;99989.97;;;20.92
80246;BMP280;69558;39.208;-77.226;2023-05-29T06:15:06;99984.28;;;20.95
80246;BMP280;69558;39.208;-77.226;2023-05-29T06:17:32;99987.88;;;21.00
80246;BMP280;69558;39.208;-77.226;2023-05-29T06:19:59;99980.38;;;20.97
80246;BMP280;69558;39.208;-77.226;2023-05-29T06:22:26;99988.28;;;20.97
80246;BMP280;69558;39.208;-77.226;2023-05-29T06:24:51;99977.38;;;20.94
80246;BMP280;69558;39.208;-77.226;2023-05-29T06:27:17;99980.19;;;20.92
80246;BMP280;69558;39.208;-77.226;2023-05-29T06:29:44;99975.97;;;20.91
80246;BMP280;69558;39.208;-77.226;2023-05-29T06:32:10;99953.31;;;20.84
80246;BMP280;69558;39.208;-77.226;2023-05-29T06:34:35;99955.97;;;20.84
80246;BMP280;69558;39.208;-77.226;2023-05-29T06:37:01;99943.56;;;20.84
80246;BMP280;69558;39.208;-77.226;2023-05-29T06:39:28;99958.72;;;20.95
80246;BMP280;69558;39.208;-77.226;2023-05-29T06:41:53;99955.28;;;20.95
80246;BMP280;69558;39.208;-77.226;2023-05-29T06:44:20;99961.34;;;20.95
80246;BMP280;69558;39.208;-77.226;2023-05-29T06:46:46;99953.03;;;20.98
80246;BMP280;69558;39.208;-77.226;2023-05-29T06:49:14;99920.84;;;20.83
80246;BMP280;69558;39.208;-77.226;2023-05-29T06:51:41;99948.16;;;20.95
80246;BMP280;69558;39.208;-77.226;2023-05-29T06:54:07;99946.72;;;20.93
80246;BMP280;69558;39.208;-77.226;2023-05-29T06:56:33;99952.00;;;20.93
80246;BMP280;69558;39.208;-77.226;2023-05-29T06:58:59;99957.28;;;20.93
80246;BMP280;69558;39.208;-77.226;2023-05-29T07:01:25;99956.72;;;20.91
80246;BMP280;69558;39.208;-77.226;2023-05-29T07:03:54;99964.81;;;20.89
80246;BMP280;69558;39.208;-77.226;2023-05-29T07:06:20;99963.19;;;20.88
80246;BMP280;69558;39.208;-77.226;2023-05-29T07:08:46;99971.72;;;20.90
80246;BMP280;69558;39.208;-77.226;2023-05-29T07:11:11;99966.84;;;20.94
80246;BMP280;69558;39.208;-77.226;2023-05-29T07:13:37;99959.34;;;20.91
80246;BMP280;69558;39.208;-77.226;2023-05-29T07:16:03;99965.44;;;20.91
80246;BMP280;69558;39.208;-77.226;2023-05-29T07:18:29;99961.91;;;20.97
80246;BMP280;69558;39.208;-77.226;2023-05-29T07:20:56;99965.38;;;20.98
80246;BMP280;69558;39.208;-77.226;2023-05-29T07:23:24;99947.19;;;20.90
80246;BMP280;69558;39.208;-77.226;2023-05-29T07:25:50;99955.47;;;20.93
80246;BMP280;69558;39.208;-77.226;2023-05-29T07:28:16;99957.28;;;20.93
80246;BMP280;69558;39.208;-77.226;2023-05-29T07:30:43;99935.28;;;20.74
80246;BMP280;69558;39.208;-77.226;2023-05-29T07:33:09;99959.09;;;20.92
80246;BMP280;69558;39.208;-77.226;2023-05-29T07:35:35;99954.50;;;20.88
80246;BMP280;69558;39.208;-77.226;2023-05-29T07:38:01;99950.63;;;20.90
80246;BMP280;69558;39.208;-77.226;2023-05-29T07:40:27;99939.50;;;20.82
80246;BMP280;69558;39.208;-77.226;2023-05-29T07:42:53;99945.16;;;20.92
80246;BMP280;69558;39.208;-77.226;2023-05-29T07:45:19;99921.44;;;20.85
80246;BMP280;69558;39.208;-77.226;2023-05-29T07:47:45;99943.69;;;20.96
80246;BMP280;69558;39.208;-77.226;2023-05-29T07:50:13;99930.91;;;20.93
80246;BMP280;69558;39.208;-77.226;2023-05-29T07:52:39;99939.84;;;20.98
80246;BMP280;69558;39.208;-77.226;2023-05-29T07:55:06;99940.00;;;20.97
80246;BMP280;69558;39.208;-77.226;2023-05-29T07:57:31;99941.28;;;20.94
80246;BMP280;69558;39.208;-77.226;2023-05-29T07:59:58;99938.25;;;20.91
80246;BMP280;69558;39.208;-77.226;2023-05-29T08:02:25;99946.97;;;20.91
80246;BMP280;69558;39.208;-77.226;2023-05-29T08:04:52;99905.75;;;20.65
80246;BMP280;69558;39.208;-77.226;2023-05-29T08:07:18;99954.28;;;20.89
80246;BMP280;69558;39.208;-77.226;2023-05-29T08:09:45;99937.50;;;20.77
80246;BMP280;69558;39.208;-77.226;2023-05-29T08:12:11;99951.66;;;20.89
80246;BMP280;69558;39.208;-77.226;2023-05-29T08:14:37;99949.81;;;20.90
80246;BMP280;69558;39.208;-77.226;2023-05-29T08:17:03;99950.41;;;20.92
80246;BMP280;69558;39.208;-77.226;2023-05-29T08:19:29;99959.72;;;20.94
80246;BMP280;69558;39.208;-77.226;2023-05-29T08:21:55;99951.19;;;20.92
80246;BMP280;69558;39.208;-77.226;2023-05-29T08:24:21;99961.75;;;20.99
80246;BMP280;69558;39.208;-77.226;2023-05-29T08:26:47;99952.25;;;20.91
80246;BMP280;69558;39.208;-77.226;2023-05-29T08:29:13;99961.34;;;20.95
80246;BMP280;69558;39.208;-77.226;2023-05-29T08:31:39;99963.38;;;20.93
80246;BMP280;69558;39.208;-77.226;2023-05-29T08:34:05;99968.88;;;20.92
80246;BMP280;69558;39.208;-77.226;2023-05-29T08:36:33;99966.06;;;20.87
80246;BMP280;69558;39.208;-77.226;2023-05-29T08:39:00;99969.09;;;20.90
80246;BMP280;69558;39.208;-77.226;2023-05-29T08:44:41;99977.19;;;20.89
80246;BMP280;69558;39.208;-77.226;2023-05-29T08:47:11;99977.63;;;20.86
80246;BMP280;69558;39.208;-77.226;2023-05-29T08:49:43;99974.78;;;20.87
80246;BMP280;69558;39.208;-77.226;2023-05-29T08:52:15;99961.00;;;20.85
80246;BMP280;69558;39.208;-77.226;2023-05-29T08:54:44;99971.09;;;20.95
80246;BMP280;69558;39.208;-77.226;2023-05-29T08:57:12;99958.53;;;20.90
80246;BMP280;69558;39.208;-77.226;2023-05-29T08:59:44;99968.44;;;20.95
80246;BMP280;69558;39.208;-77.226;2023-05-29T09:02:15;99946.44;;;20.76
80246;BMP280;69558;39.208;-77.226;2023-05-29T09:04:44;99962.63;;;20.79
80246;BMP280;69558;39.208;-77.226;2023-05-29T09:07:11;99976.81;;;20.85
80246;BMP280;69558;39.208;-77.226;2023-05-29T09:09:38;99950.28;;;20.73
80246;BMP280;69558;39.208;-77.226;2023-05-29T09:12:04;99966.50;;;20.84
80246;BMP280;69558;39.208;-77.226;2023-05-29T09:14:34;99966.50;;;20.77
80246;BMP280;69558;39.208;-77.226;2023-05-29T09:17:02;99971.53;;;20.85
80246;BMP280;69558;39.208;-77.226;2023-05-29T09:19:29;99977.41;;;20.87
80246;BMP280;69558;39.208;-77.226;2023-05-29T09:24:28;99971.50;;;20.92
80246;BMP280;69558;39.208;-77.226;2023-05-29T09:26:56;99949.88;;;20.76
80246;BMP280;69558;39.208;-77.226;2023-05-29T09:29:22;99984.28;;;20.95
80246;BMP280;69558;39.208;-77.226;2023-05-29T09:31:52;99981.25;;;20.91
80246;BMP280;69558;39.208;-77.226;2023-05-29T09:34:18;99988.91;;;20.93
80246;BMP280;69558;39.208;-77.226;2023-05-29T09:36:45;99987.53;;;20.90
80246;BMP280;69558;39.208;-77.226;2023-05-29T09:39:11;99977.84;;;20.77
80246;BMP280;69558;39.208;-77.226;2023-05-29T09:41:46;99989.59;;;20.82
80246;BMP280;69558;39.208;-77.226;2023-05-29T09:44:16;100002.78;;;20.82
80246;BMP280;69558;39.208;-77.226;2023-05-29T09:46:42;100009.66;;;20.83
80246;BMP280;69558;39.208;-77.226;2023-05-29T09:49:12;100015.75;;;20.83
80246;BMP280;69558;39.208;-77.226;2023-05-29T09:51:39;99982.19;;;20.65
80246;BMP280;69558;39.208;-77.226;2023-05-29T09:54:16;100007.63;;;20.85
80246;BMP280;69558;39.208;-77.226;2023-05-29T09:56:43;100015.72;;;20.90
80246;BMP280;69558;39.208;-77.226;2023-05-29T09:59:14;100017.13;;;20.92
80246;BMP280;69558;39.208;-77.226;2023-05-29T10:01:42;100014.72;;;20.91
80246;BMP280;69558;39.208;-77.226;2023-05-29T10:04:12;100009.84;;;20.88
80246;BMP280;69558;39.208;-77.226;2023-05-29T10:06:44;100014.72;;;20.91
80246;BMP280;69558;39.208;-77.226;2023-05-29T10:09:16;99994.91;;;20.75
80246;BMP280;69558;39.208;-77.226;2023-05-29T10:11:44;100003.97;;;20.86
80246;BMP280;69558;39.208;-77.226;2023-05-29T10:14:18;100004.19;;;20.84
80246;BMP280;69558;39.208;-77.226;2023-05-29T10:16:46;99980.31;;;20.72
80246;BMP280;69558;39.208;-77.226;2023-05-29T10:19:18;99999.13;;;20.83
80246;BMP280;69558;39.208;-77.226;2023-05-29T10:21:45;99979.50;;;20.72
80246;BMP280;69558;39.208;-77.226;2023-05-29T10:24:14;99990.03;;;20.72
80246;BMP280;69558;39.208;-77.226;2023-05-29T10:26:41;100008.00;;;20.88
80246;BMP280;69558;39.208;-77.226;2023-05-29T10:32:29;100007.59;;;20.91
80246;BMP280;69558;39.208;-77.226;2023-05-29T10:35:17;100009.47;;;20.84
80246;BMP280;69558;39.208;-77.226;2023-05-29T10:40:11;100010.69;;;20.82
80246;BMP280;69558;39.208;-77.226;2023-05-29T10:50:45;100004.03;;;20.79
80246;BMP280;69558;39.208;-77.226;2023-05-29T10:53:31;99985.56;;;20.72
80246;BMP280;69558;39.208;-77.226;2023-05-29T10:56:00;100000.94;;;20.82
80246;BMP280;69558;39.208;-77.226;2023-05-29T10:58:27;100005.34;;;20.88
80246;BMP280;69558;39.208;-77.226;2023-05-29T11:00:54;100009.19;;;20.92
80246;BMP280;69558;39.208;-77.226;2023-05-29T11:03:30;100002.34;;;20.91
80246;BMP280;69558;39.208;-77.226;2023-05-29T11:06:00;100007.81;;;20.90
80246;BMP280;69558;39.208;-77.226;2023-05-29T11:11:12;100015.91;;;20.88
80246;BMP280;69558;39.208;-77.226;2023-05-29T11:13:38;100002.78;;;20.82
80246;BMP280;69558;39.208;-77.226;2023-05-29T11:19:15;99986.81;;;20.70
80246;BMP280;69558;39.208;-77.226;2023-05-29T11:24:25;100004.03;;;20.79
80246;BMP280;69558;39.208;-77.226;2023-05-29T11:26:55;100006.06;;;20.84
80246;BMP280;69558;39.208;-77.226;2023-05-29T11:29:29;99990.84;;;20.79
80246;BMP280;69558;39.208;-77.226;2023-05-29T11:32:02;99996.66;;;20.88
80246;BMP280;69558;39.208;-77.226;2023-05-29T11:34:29;99988.59;;;20.83
80246;BMP280;69558;39.208;-77.226;2023-05-29T11:36:59;99992.00;;;20.90
80246;BMP280;69558;39.208;-77.226;2023-05-29T11:39:25;100000.94;;;20.89
80246;BMP280;69558;39.208;-77.226;2023-05-29T11:41:52;99997.69;;;20.87
80246;BMP280;69558;39.208;-77.226;2023-05-29T11:44:18;99972.22;;;20.67
80246;BMP280;69558;39.208;-77.226;2023-05-29T11:46:44;100007.63;;;20.85
80246;BMP280;69558;39.208;-77.226;2023-05-29T11:49:10;100007.44;;;20.79
80246;BMP280;69558;39.208;-77.226;2023-05-29T11:51:36;100009.31;;;20.79
80246;BMP280;69558;39.208;-77.226;2023-05-29T11:54:02;100013.13;;;20.76
80246;BMP280;69558;39.208;-77.226;2023-05-29T11:56:29;100025.28;;;20.84
80246;BMP280;69558;39.208;-77.226;2023-05-29T11:58:58;99999.81;;;20.65
80246;BMP280;69558;39.208;-77.226;2023-05-29T12:01:25;100031.38;;;20.85
80246;BMP280;69558;39.208;-77.226;2023-05-29T12:03:52;100026.88;;;20.92
80246;BMP280;69558;39.208;-77.226;2023-05-29T12:06:35;100031.09;;;20.93
80246;BMP280;69558;39.208;-77.226;2023-05-29T12:09:03;100013.31;;;20.82
80246;BMP280;69558;39.208;-77.226;2023-05-29T12:11:31;100021.00;;;20.90
80246;BMP280;69558;39.208;-77.226;2023-05-29T12:14:00;100015.75;;;20.83
80246;BMP280;69558;39.208;-77.226;2023-05-29T12:16:27;100026.69;;;20.87
80246;BMP280;69558;39.208;-77.226;2023-05-29T12:18:54;100026.50;;;20.82
80246;BMP280;69558;39.208;-77.226;2023-05-29T12:21:22;100030.97;;;20.81
80246;BMP280;69558;39.208;-77.226;2023-05-29T12:23:52;100030.41;;;20.79
80246;BMP280;69558;39.208;-77.226;2023-05-29T12:26:22;100028.56;;;20.73
80246;BMP280;69558;39.208;-77.226;2023-05-29T12:28:50;100012.56;;;20.68
80246;BMP280;69558;39.208;-77.226;2023-05-29T12:31:29;100037.84;;;20.82
80246;BMP280;69558;39.208;-77.226;2023-05-29T12:34:08;100023.44;;;20.85
80246;BMP280;69558;39.208;-77.226;2023-05-29T12:36:34;100026.28;;;20.90
80246;BMP280;69558;39.208;-77.226;2023-05-29T12:39:05;100008.47;;;20.78
80246;BMP280;69558;39.208;-77.226;2023-05-29T12:41:34;100028.91;;;20.90
80246;BMP280;69558;39.208;-77.226;2023-05-29T12:44:03;100031.53;;;20.90
80246;BMP280;69558;39.208;-77.226;2023-05-29T12:46:40;100024.66;;;20.89
80246;BMP280;69558;39.208;-77.226;2023-05-29T12:49:15;100015.16;;;20.81
80246;BMP280;69558;39.208;-77.226;2023-05-29T12:51:43;100028.53;;;20.86
80246;BMP280;69558;39.208;-77.226;2023-05-29T12:54:09;100029.94;;;20.82
80246;BMP280;69558;39.208;-77.226;2023-05-29T12:56:35;100035.44;;;20.80
80246;BMP280;69558;39.208;-77.226;2023-05-29T12:59:01;100033.81;;;20.79
80246;BMP280;69558;39.208;-77.226;2023-05-29T13:01:27;100038.06;;;20.80
80246;BMP280;69558;39.208;-77.226;2023-05-29T13:03:53;100037.47;;;20.78
80246;BMP280;69558;39.208;-77.226;2023-05-29T13:06:19;100043.53;;;20.86
80246;BMP280;69558;39.208;-77.226;2023-05-29T13:08:45;100051.22;;;20.87
80246;BMP280;69558;39.208;-77.226;2023-05-29T13:11:11;100031.81;;;20.75
80246;BMP280;69558;39.208;-77.226;2023-05-29T13:13:37;100059.53;;;20.91
80246;BMP280;69558;39.208;-77.226;2023-05-29T13:16:02;100062.59;;;20.88
80246;BMP280;69558;39.208;-77.226;2023-05-29T13:18:28;100054.13;;;20.79
80246;BMP280;69558;39.208;-77.226;2023-05-29T13:20:55;100068.06;;;20.86
80246;BMP280;69558;39.208;-77.226;2023-05-29T13:23:21;100044.38;;;20.73
80246;BMP280;69558;39.208;-77.226;2023-05-29T13:25:47;100072.13;;;20.82
80246;BMP280;69558;39.208;-77.226;2023-05-29T13:28:15;100060.81;;;20.75
80246;BMP280;69558;39.208;-77.226;2023-05-29T13:30:41;100075.78;;;20.81
80246;BMP280;69558;39.208;-77.226;2023-05-29T13:33:06;100075.16;;;20.86
80246;BMP280;69558;39.208;-77.226;2023-05-29T13:35:32;100073.53;;;20.85
80246;BMP280;69558;39.208;-77.226;2023-05-29T13:37:58;100077.59;;;20.87
80246;BMP280;69558;39.208;-77.226;2023-05-29T13:40:25;100069.47;;;20.89
80246;BMP280;69558;39.208;-77.226;2023-05-29T13:42:51;100066.63;;;20.90
80246;BMP280;69558;39.208;-77.226;2023-05-29T13:45:17;100068.00;;;20.93
80246;BMP280;69558;39.208;-77.226;2023-05-29T13:47:44;100068.47;;;20.90
80246;BMP280;69558;39.208;-77.226;2023-05-29T13:50:10;100065.81;;;20.90
80246;BMP280;69558;39.208;-77.226;2023-05-29T13:52:36;100044.19;;;20.74
80246;BMP280;69558;39.208;-77.226;2023-05-29T13:55:03;100055.09;;;20.78
80246;BMP280;69558;39.208;-77.226;2023-05-29T13:57:34;100065.63;;;20.85
80246;BMP280;69558;39.208;-77.226;2023-05-29T14:00:03;100060.38;;;20.78
80246;BMP280;69558;39.208;-77.226;2023-05-29T14:02:29;100065.44;;;20.79
80246;BMP280;69558;39.208;-77.226;2023-05-29T14:04:55;100052.25;;;20.79
80246;BMP280;69558;39.208;-77.226;2023-05-29T14:07:22;100060.16;;;20.86
80246;BMP280;69558;39.208;-77.226;2023-05-29T14:09:49;100044.34;;;20.79